sensor_id;sensor_type;location;lat;lon;timestamp;P1;durP1;ratioP1;P2;durP2;ratioP2
13048;SDS011;6591;51.446;5.404;2022-11-06T00:02:07;6.03;;;3.00;;
13048;SDS011;6591;51.446;5.404;2022-11-06T00:04:35;4.80;;;2.57;;
13048;SDS011;6591;51.446;5.404;2022-11-06T00:07:01;4.90;;;2.60;;
13048;SDS011;6591;51.446;5.404;2022-11-06T00:09:28;5.97;;;2.80;;
13048;SDS011;6591;51.446;5.404;2022-11-06T00:11:55;3.90;;;2.40;;
13048;SDS011;6591;51.446;5.404;2022-11-06T00:14:23;5.07;;;2.30;;
13048;SDS011;6591;51.446;5.404;2022-11-06T00:16:49;3.53;;;2.73;;
13048;SDS011;6591;51.446;5.404;2022-11-06T00:19:17;7.40;;;2.67;;
13048;SDS011;6591;51.446;5.404;2022-11-06T00:21:44;5.20;;;3.03;;
13048;SDS011;6591;51.446;5.404;2022-11-06T00:24:12;5.73;;;2.77;;
13048;SDS011;6591;51.446;5.404;2022-11-06T00:26:40;4.13;;;2.77;;
13048;SDS011;6591;51.446;5.404;2022-11-06T00:29:11;5.47;;;2.53;;
13048;SDS011;6591;51.446;5.404;2022-11-06T00:31:40;5.13;;;2.73;;
13048;SDS011;6591;51.446;5.404;2022-11-06T00:34:08;5.77;;;2.40;;
13048;SDS011;6591;51.446;5.404;2022-11-06T00:36:36;5.23;;;2.70;;
13048;SDS011;6591;51.446;5.404;2022-11-06T00:39:03;5.70;;;2.70;;
13048;SDS011;6591;51.446;5.404;2022-11-06T00:41:30;3.93;;;2.40;;
13048;SDS011;6591;51.446;5.404;2022-11-06T00:44:00;5.30;;;2.83;;
13048;SDS011;6591;51.446;5.404;2022-11-06T00:46:28;3.57;;;2.67;;
13048;SDS011;6591;51.446;5.404;2022-11-06T00:48:55;5.00;;;2.90;;
13048;SDS011;6591;51.446;5.404;2022-11-06T00:51:27;4.90;;;2.70;;
13048;SDS011;6591;51.446;5.404;2022-11-06T00:54:01;5.50;;;2.70;;
13048;SDS011;6591;51.446;5.404;2022-11-06T00:56:30;4.10;;;2.70;;
13048;SDS011;6591;51.446;5.404;2022-11-06T00:59:00;3.87;;;2.30;;
13048;SDS011;6591;51.446;5.404;2022-11-06T01:01:33;3.50;;;2.17;;
13048;SDS011;6591;51.446;5.404;2022-11-06T01:04:08;6.40;;;2.67;;
13048;SDS011;6591;51.446;5.404;2022-11-06T01:07:29;4.57;;;2.40;;
13048;SDS011;6591;51.446;5.404;2022-11-06T01:10:22;5.23;;;2.17;;
13048;SDS011;6591;51.446;5.404;2022-11-06T01:12:49;7.23;;;2.20;;
13048;SDS011;6591;51.446;5.404;2022-11-06T01:15:17;4.80;;;2.47;;
13048;SDS011;6591;51.446;5.404;2022-11-06T01:17:44;5.60;;;2.67;;
13048;SDS011;6591;51.446;5.404;2022-11-06T01:20:11;4.67;;;2.10;;
13048;SDS011;6591;51.446;5.404;2022-11-06T01:22:37;6.23;;;2.10;;
13048;SDS011;6591;51.446;5.404;2022-11-06T01:25:04;5.60;;;2.53;;
13048;SDS011;6591;51.446;5.404;2022-11-06T01:27:32;4.47;;;2.50;;
13048;SDS011;6591;51.446;5.404;2022-11-06T01:29:59;5.47;;;2.37;;
13048;SDS011;6591;51.446;5.404;2022-11-06T01:32:26;4.47;;;2.50;;
13048;SDS011;6591;51.446;5.404;2022-11-06T01:34:53;6.00;;;2.57;;
13048;SDS011;6591;51.446;5.404;2022-11-06T01:37:20;4.00;;;2.00;;
13048;SDS011;6591;51.446;5.404;2022-11-06T01:39:47;4.57;;;2.27;;
13048;SDS011;6591;51.446;5.404;2022-11-06T01:42:15;3.17;;;2.27;;
13048;SDS011;6591;51.446;5.404;2022-11-06T01:45:01;5.83;;;2.40;;
13048;SDS011;6591;51.446;5.404;2022-11-06T01:47:51;3.57;;;2.10;;
13048;SDS011;6591;51.446;5.404;2022-11-06T01:50:18;5.97;;;2.43;;
13048;SDS011;6591;51.446;5.404;2022-11-06T01:52:45;4.63;;;2.00;;
13048;SDS011;6591;51.446;5.404;2022-11-06T01:55:23;6.43;;;2.30;;
13048;SDS011;6591;51.446;5.404;2022-11-06T01:57:56;3.47;;;1.80;;
13048;SDS011;6591;51.446;5.404;2022-11-06T02:00:26;3.43;;;2.13;;
13048;SDS011;6591;51.446;5.404;2022-11-06T02:02:56;7.67;;;2.20;;
13048;SDS011;6591;51.446;5.404;2022-11-06T02:05:24;3.90;;;1.97;;
13048;SDS011;6591;51.446;5.404;2022-11-06T02:07:51;3.13;;;1.90;;
13048;SDS011;6591;51.446;5.404;2022-11-06T02:10:20;3.63;;;1.87;;
13048;SDS011;6591;51.446;5.404;2022-11-06T02:12:57;4.30;;;1.90;;
13048;SDS011;6591;51.446;5.404;2022-11-06T02:15:53;4.03;;;1.80;;
13048;SDS011;6591;51.446;5.404;2022-11-06T02:28:09;7.20;;;2.10;;
13048;SDS011;6591;51.446;5.404;2022-11-06T02:30:55;3.00;;;1.77;;
13048;SDS011;6591;51.446;5.404;2022-11-06T02:33:29;6.13;;;2.00;;
13048;SDS011;6591;51.446;5.404;2022-11-06T02:36:03;4.37;;;1.80;;
13048;SDS011;6591;51.446;5.404;2022-11-06T02:38:49;3.73;;;1.73;;
13048;SDS011;6591;51.446;5.404;2022-11-06T02:41:30;5.70;;;2.00;;
13048;SDS011;6591;51.446;5.404;2022-11-06T02:44:02;3.73;;;2.00;;
13048;SDS011;6591;51.446;5.404;2022-11-06T02:49:09;4.43;;;2.07;;
13048;SDS011;6591;51.446;5.404;2022-11-06T02:51:47;5.87;;;1.83;;
13048;SDS011;6591;51.446;5.404;2022-11-06T02:54:21;4.67;;;2.07;;
13048;SDS011;6591;51.446;5.404;2022-11-06T02:56:54;6.33;;;1.97;;
13048;SDS011;6591;51.446;5.404;2022-11-06T02:59:27;4.43;;;2.10;;
13048;SDS011;6591;51.446;5.404;2022-11-06T03:02:09;4.60;;;2.20;;
13048;SDS011;6591;51.446;5.404;2022-11-06T03:05:23;5.30;;;2.40;;
13048;SDS011;6591;51.446;5.404;2022-11-06T03:08:08;5.10;;;1.80;;
13048;SDS011;6591;51.446;5.404;2022-11-06T03:14:26;4.17;;;1.80;;
13048;SDS011;6591;51.446;5.404;2022-11-06T03:17:12;2.77;;;1.83;;
13048;SDS011;6591;51.446;5.404;2022-11-06T03:19:55;5.33;;;1.80;;
13048;SDS011;6591;51.446;5.404;2022-11-06T03:22:41;5.67;;;2.17;;
13048;SDS011;6591;51.446;5.404;2022-11-06T03:25:30;5.90;;;2.07;;
13048;SDS011;6591;51.446;5.404;2022-11-06T03:31:01;6.70;;;2.33;;
13048;SDS011;6591;51.446;5.404;2022-11-06T03:38:41;3.50;;;1.87;;
13048;SDS011;6591;51.446;5.404;2022-11-06T03:44:10;3.20;;;2.17;;
13048;SDS011;6591;51.446;5.404;2022-11-06T03:46:46;5.07;;;1.93;;
13048;SDS011;6591;51.446;5.404;2022-11-06T03:49:25;3.80;;;2.10;;
13048;SDS011;6591;51.446;5.404;2022-11-06T03:52:01;4.77;;;1.80;;
13048;SDS011;6591;51.446;5.404;2022-11-06T03:54:43;3.57;;;2.30;;
13048;SDS011;6591;51.446;5.404;2022-11-06T03:57:22;5.00;;;2.00;;
13048;SDS011;6591;51.446;5.404;2022-11-06T04:00:03;4.07;;;2.07;;
13048;SDS011;6591;51.446;5.404;2022-11-06T04:02:40;3.83;;;1.70;;
13048;SDS011;6591;51.446;5.404;2022-11-06T04:05:16;3.43;;;1.80;;
13048;SDS011;6591;51.446;5.404;2022-11-06T04:07:51;4.70;;;1.87;;
13048;SDS011;6591;51.446;5.404;2022-11-06T04:10:41;4.93;;;1.83;;
13048;SDS011;6591;51.446;5.404;2022-11-06T04:13:32;5.07;;;1.90;;
13048;SDS011;6591;51.446;5.404;2022-11-06T04:16:23;2.43;;;1.60;;
13048;SDS011;6591;51.446;5.404;2022-11-06T04:18:54;4.03;;;1.90;;
13048;SDS011;6591;51.446;5.404;2022-11-06T04:30:25;3.53;;;2.10;;
13048;SDS011;6591;51.446;5.404;2022-11-06T04:41:33;6.37;;;1.70;;
13048;SDS011;6591;51.446;5.404;2022-11-06T04:44:27;5.20;;;2.27;;
13048;SDS011;6591;51.446;5.404;2022-11-06T04:47:05;2.70;;;1.80;;
13048;SDS011;6591;51.446;5.404;2022-11-06T04:49:40;3.60;;;1.80;;
13048;SDS011;6591;51.446;5.404;2022-11-06T04:52:14;4.37;;;2.20;;
13048;SDS011;6591;51.446;5.404;2022-11-06T04:54:46;6.03;;;2.10;;
13048;SDS011;6591;51.446;5.404;2022-11-06T04:57:14;2.33;;;1.63;;
13048;SDS011;6591;51.446;5.404;2022-11-06T04:59:41;5.17;;;1.97;;
13048;SDS011;6591;51.446;5.404;2022-11-06T05:02:08;4.10;;;2.03;;
13048;SDS011;6591;51.446;5.404;2022-11-06T05:04:36;3.67;;;1.77;;
13048;SDS011;6591;51.446;5.404;2022-11-06T05:07:03;5.70;;;2.47;;
13048;SDS011;6591;51.446;5.404;2022-11-06T05:09:30;3.80;;;2.00;;
13048;SDS011;6591;51.446;5.404;2022-11-06T05:11:57;4.33;;;1.90;;
13048;SDS011;6591;51.446;5.404;2022-11-06T05:14:23;3.40;;;1.73;;
13048;SDS011;6591;51.446;5.404;2022-11-06T05:16:50;4.43;;;2.07;;
13048;SDS011;6591;51.446;5.404;2022-11-06T05:19:17;3.73;;;1.90;;
13048;SDS011;6591;51.446;5.404;2022-11-06T05:21:44;3.63;;;1.80;;
13048;SDS011;6591;51.446;5.404;2022-11-06T05:24:29;3.23;;;1.77;;
13048;SDS011;6591;51.446;5.404;2022-11-06T05:26:56;3.90;;;2.03;;
13048;SDS011;6591;51.446;5.404;2022-11-06T05:29:25;3.67;;;2.00;;
13048;SDS011;6591;51.446;5.404;2022-11-06T05:31:52;4.67;;;2.00;;
13048;SDS011;6591;51.446;5.404;2022-11-06T05:34:19;5.87;;;2.47;;
13048;SDS011;6591;51.446;5.404;2022-11-06T05:36:46;4.00;;;1.60;;
13048;SDS011;6591;51.446;5.404;2022-11-06T05:39:13;3.63;;;1.90;;
13048;SDS011;6591;51.446;5.404;2022-11-06T05:41:40;3.43;;;1.70;;
13048;SDS011;6591;51.446;5.404;2022-11-06T05:44:07;2.93;;;1.80;;
13048;SDS011;6591;51.446;5.404;2022-11-06T05:46:34;3.17;;;2.00;;
13048;SDS011;6591;51.446;5.404;2022-11-06T05:49:14;4.20;;;2.00;;
13048;SDS011;6591;51.446;5.404;2022-11-06T05:51:41;3.90;;;1.90;;
13048;SDS011;6591;51.446;5.404;2022-11-06T05:54:08;3.80;;;1.60;;
13048;SDS011;6591;51.446;5.404;2022-11-06T05:56:34;4.57;;;2.00;;
13048;SDS011;6591;51.446;5.404;2022-11-06T05:59:01;4.43;;;2.03;;
13048;SDS011;6591;51.446;5.404;2022-11-06T06:01:28;4.20;;;2.17;;
13048;SDS011;6591;51.446;5.404;2022-11-06T06:03:55;5.03;;;1.90;;
13048;SDS011;6591;51.446;5.404;2022-11-06T06:06:22;4.20;;;2.00;;
13048;SDS011;6591;51.446;5.404;2022-11-06T06:08:50;5.10;;;2.37;;
13048;SDS011;6591;51.446;5.404;2022-11-06T06:11:16;4.17;;;2.00;;
13048;SDS011;6591;51.446;5.404;2022-11-06T06:13:43;4.70;;;2.10;;
13048;SDS011;6591;51.446;5.404;2022-11-06T06:16:10;3.13;;;1.63;;
13048;SDS011;6591;51.446;5.404;2022-11-06T06:18:37;4.10;;;1.70;;
13048;SDS011;6591;51.446;5.404;2022-11-06T06:21:04;6.80;;;2.00;;
13048;SDS011;6591;51.446;5.404;2022-11-06T06:23:31;3.20;;;1.60;;
13048;SDS011;6591;51.446;5.404;2022-11-06T06:25:58;2.63;;;1.80;;
13048;SDS011;6591;51.446;5.404;2022-11-06T06:28:25;5.40;;;2.03;;
13048;SDS011;6591;51.446;5.404;2022-11-06T06:30:52;3.73;;;1.80;;
13048;SDS011;6591;51.446;5.404;2022-11-06T06:33:26;4.70;;;1.90;;
13048;SDS011;6591;51.446;5.404;2022-11-06T06:35:53;3.33;;;1.93;;
13048;SDS011;6591;51.446;5.404;2022-11-06T06:38:20;4.27;;;1.80;;
13048;SDS011;6591;51.446;5.404;2022-11-06T06:40:46;4.30;;;1.50;;
13048;SDS011;6591;51.446;5.404;2022-11-06T06:43:13;4.97;;;1.70;;
13048;SDS011;6591;51.446;5.404;2022-11-06T06:45:40;2.83;;;1.63;;
13048;SDS011;6591;51.446;5.404;2022-11-06T06:48:07;3.57;;;2.10;;
13048;SDS011;6591;51.446;5.404;2022-11-06T06:50:34;3.73;;;1.47;;
13048;SDS011;6591;51.446;5.404;2022-11-06T06:53:01;4.50;;;1.80;;
13048;SDS011;6591;51.446;5.404;2022-11-06T06:55:28;2.33;;;1.43;;
13048;SDS011;6591;51.446;5.404;2022-11-06T06:57:56;3.53;;;1.87;;
13048;SDS011;6591;51.446;5.404;2022-11-06T07:00:25;4.37;;;1.60;;
13048;SDS011;6591;51.446;5.404;2022-11-06T07:02:53;2.60;;;1.77;;
13048;SDS011;6591;51.446;5.404;2022-11-06T07:05:20;3.53;;;1.87;;
13048;SDS011;6591;51.446;5.404;2022-11-06T07:07:47;2.90;;;1.87;;
13048;SDS011;6591;51.446;5.404;2022-11-06T07:10:14;3.80;;;1.83;;
13048;SDS011;6591;51.446;5.404;2022-11-06T07:12:41;1.87;;;1.47;;
13048;SDS011;6591;51.446;5.404;2022-11-06T07:15:08;3.57;;;1.70;;
13048;SDS011;6591;51.446;5.404;2022-11-06T07:17:36;4.60;;;1.87;;
13048;SDS011;6591;51.446;5.404;2022-11-06T07:20:03;3.87;;;1.70;;
13048;SDS011;6591;51.446;5.404;2022-11-06T07:22:31;2.87;;;1.70;;
13048;SDS011;6591;51.446;5.404;2022-11-06T07:25:03;3.33;;;1.97;;
13048;SDS011;6591;51.446;5.404;2022-11-06T07:27:31;3.00;;;1.63;;
13048;SDS011;6591;51.446;5.404;2022-11-06T07:29:59;4.50;;;2.00;;
13048;SDS011;6591;51.446;5.404;2022-11-06T07:32:26;2.00;;;1.60;;
13048;SDS011;6591;51.446;5.404;2022-11-06T07:34:53;2.33;;;1.53;;
13048;SDS011;6591;51.446;5.404;2022-11-06T07:37:20;2.40;;;1.63;;
13048;SDS011;6591;51.446;5.404;2022-11-06T07:39:48;3.23;;;1.50;;
13048;SDS011;6591;51.446;5.404;2022-11-06T07:42:15;3.13;;;1.63;;
13048;SDS011;6591;51.446;5.404;2022-11-06T07:44:55;3.83;;;1.60;;
13048;SDS011;6591;51.446;5.404;2022-11-06T07:47:21;2.53;;;1.67;;
13048;SDS011;6591;51.446;5.404;2022-11-06T07:49:49;3.97;;;1.70;;
13048;SDS011;6591;51.446;5.404;2022-11-06T07:52:16;2.67;;;1.80;;
13048;SDS011;6591;51.446;5.404;2022-11-06T07:54:43;4.77;;;1.80;;
13048;SDS011;6591;51.446;5.404;2022-11-06T07:57:11;2.53;;;1.63;;
13048;SDS011;6591;51.446;5.404;2022-11-06T07:59:38;2.97;;;1.50;;
13048;SDS011;6591;51.446;5.404;2022-11-06T08:02:05;2.47;;;1.47;;
13048;SDS011;6591;51.446;5.404;2022-11-06T08:04:37;3.00;;;1.67;;
13048;SDS011;6591;51.446;5.404;2022-11-06T08:07:04;2.70;;;1.50;;
13048;SDS011;6591;51.446;5.404;2022-11-06T08:09:32;3.10;;;1.83;;
13048;SDS011;6591;51.446;5.404;2022-11-06T08:11:58;5.47;;;1.60;;
13048;SDS011;6591;51.446;5.404;2022-11-06T08:14:25;3.00;;;1.70;;
13048;SDS011;6591;51.446;5.404;2022-11-06T08:16:52;1.97;;;1.37;;
13048;SDS011;6591;51.446;5.404;2022-11-06T08:19:20;3.27;;;1.70;;
13048;SDS011;6591;51.446;5.404;2022-11-06T08:21:47;4.10;;;1.70;;
13048;SDS011;6591;51.446;5.404;2022-11-06T08:24:15;3.70;;;1.57;;
13048;SDS011;6591;51.446;5.404;2022-11-06T08:26:47;3.07;;;1.63;;
13048;SDS011;6591;51.446;5.404;2022-11-06T08:29:14;3.93;;;1.73;;
13048;SDS011;6591;51.446;5.404;2022-11-06T08:31:41;1.70;;;1.30;;
13048;SDS011;6591;51.446;5.404;2022-11-06T08:34:08;3.83;;;1.40;;
13048;SDS011;6591;51.446;5.404;2022-11-06T08:36:40;4.40;;;1.67;;
13048;SDS011;6591;51.446;5.404;2022-11-06T08:39:15;2.63;;;1.53;;
13048;SDS011;6591;51.446;5.404;2022-11-06T08:41:42;5.87;;;1.70;;
13048;SDS011;6591;51.446;5.404;2022-11-06T08:44:10;2.93;;;1.47;;
13048;SDS011;6591;51.446;5.404;2022-11-06T08:46:37;2.43;;;1.50;;
13048;SDS011;6591;51.446;5.404;2022-11-06T08:49:04;2.77;;;1.30;;
13048;SDS011;6591;51.446;5.404;2022-11-06T08:51:30;2.63;;;1.50;;
13048;SDS011;6591;51.446;5.404;2022-11-06T08:53:57;2.20;;;1.40;;
13048;SDS011;6591;51.446;5.404;2022-11-06T08:56:24;1.80;;;1.37;;
13048;SDS011;6591;51.446;5.404;2022-11-06T08:58:51;2.17;;;1.30;;
13048;SDS011;6591;51.446;5.404;2022-11-06T09:01:21;4.17;;;1.83;;
13048;SDS011;6591;51.446;5.404;2022-11-06T09:03:49;3.17;;;1.40;;
13048;SDS011;6591;51.446;5.404;2022-11-06T09:06:16;4.00;;;1.57;;
13048;SDS011;6591;51.446;5.404;2022-11-06T09:08:43;3.17;;;1.60;;
13048;SDS011;6591;51.446;5.404;2022-11-06T09:11:10;4.23;;;1.93;;
13048;SDS011;6591;51.446;5.404;2022-11-06T09:13:38;2.93;;;1.13;;
13048;SDS011;6591;51.446;5.404;2022-11-06T09:16:05;3.43;;;1.67;;
13048;SDS011;6591;51.446;5.404;2022-11-06T09:18:40;2.77;;;1.30;;
13048;SDS011;6591;51.446;5.404;2022-11-06T09:21:07;2.23;;;1.50;;
13048;SDS011;6591;51.446;5.404;2022-11-06T09:23:34;3.47;;;1.50;;
13048;SDS011;6591;51.446;5.404;2022-11-06T09:26:01;3.33;;;1.57;;
13048;SDS011;6591;51.446;5.404;2022-11-06T09:28:28;4.10;;;1.40;;
13048;SDS011;6591;51.446;5.404;2022-11-06T09:30:55;2.10;;;1.20;;
13048;SDS011;6591;51.446;5.404;2022-11-06T09:33:22;3.83;;;1.50;;
13048;SDS011;6591;51.446;5.404;2022-11-06T09:35:49;2.17;;;1.40;;
13048;SDS011;6591;51.446;5.404;2022-11-06T09:38:15;1.70;;;1.43;;
13048;SDS011;6591;51.446;5.404;2022-11-06T09:43:24;2.40;;;1.00;;
13048;SDS011;6591;51.446;5.404;2022-11-06T09:46:32;4.77;;;1.80;;
13048;SDS011;6591;51.446;5.404;2022-11-06T09:49:51;3.43;;;1.30;;
13048;SDS011;6591;51.446;5.404;2022-11-06T09:52:07;2.63;;;1.37;;
13048;SDS011;6591;51.446;5.404;2022-11-06T09:55:00;3.03;;;1.40;;
13048;SDS011;6591;51.446;5.404;2022-11-06T10:00:15;3.67;;;1.37;;
13048;SDS011;6591;51.446;5.404;2022-11-06T10:02:52;2.30;;;1.13;;
13048;SDS011;6591;51.446;5.404;2022-11-06T10:05:32;3.63;;;1.40;;
13048;SDS011;6591;51.446;5.404;2022-11-06T10:08:03;2.27;;;1.10;;
13048;SDS011;6591;51.446;5.404;2022-11-06T10:11:25;3.33;;;1.60;;
13048;SDS011;6591;51.446;5.404;2022-11-06T10:13:36;3.17;;;1.30;;
13048;SDS011;6591;51.446;5.404;2022-11-06T10:19:49;3.20;;;1.20;;
13048;SDS011;6591;51.446;5.404;2022-11-06T10:22:47;2.73;;;1.50;;
13048;SDS011;6591;51.446;5.404;2022-11-06T10:26:03;3.50;;;1.20;;
13048;SDS011;6591;51.446;5.404;2022-11-06T10:28:57;3.03;;;1.30;;
13048;SDS011;6591;51.446;5.404;2022-11-06T10:35:10;2.80;;;1.43;;
13048;SDS011;6591;51.446;5.404;2022-11-06T10:40:36;6.23;;;1.40;;
13048;SDS011;6591;51.446;5.404;2022-11-06T10:48:52;2.77;;;1.50;;
13048;SDS011;6591;51.446;5.404;2022-11-06T10:51:29;2.73;;;1.50;;
13048;SDS011;6591;51.446;5.404;2022-11-06T10:54:27;3.17;;;1.40;;
13048;SDS011;6591;51.446;5.404;2022-11-06T11:00:09;1.87;;;1.30;;
13048;SDS011;6591;51.446;5.404;2022-11-06T11:02:39;2.07;;;1.33;;
13048;SDS011;6591;51.446;5.404;2022-11-06T11:05:13;3.15;;;1.60;;
13048;SDS011;6591;51.446;5.404;2022-11-06T11:07:44;3.47;;;1.57;;
13048;SDS011;6591;51.446;5.404;2022-11-06T11:12:54;6.97;;;1.83;;
13048;SDS011;6591;51.446;5.404;2022-11-06T11:15:42;2.50;;;1.00;;
13048;SDS011;6591;51.446;5.404;2022-11-06T11:20:39;1.58;;;1.35;;
13048;SDS011;6591;51.446;5.404;2022-11-06T11:23:14;3.00;;;1.60;;
13048;SDS011;6591;51.446;5.404;2022-11-06T11:25:51;2.77;;;1.33;;
13048;SDS011;6591;51.446;5.404;2022-11-06T11:28:36;3.03;;;1.55;;
13048;SDS011;6591;51.446;5.404;2022-11-06T11:31:15;2.33;;;1.27;;
13048;SDS011;6591;51.446;5.404;2022-11-06T11:33:48;2.83;;;1.52;;
13048;SDS011;6591;51.446;5.404;2022-11-06T11:36:21;5.53;;;1.60;;
13048;SDS011;6591;51.446;5.404;2022-11-06T11:38:49;2.20;;;1.37;;
13048;SDS011;6591;51.446;5.404;2022-11-06T11:46:44;2.30;;;1.40;;
13048;SDS011;6591;51.446;5.404;2022-11-06T11:49:30;2.80;;;1.40;;
13048;SDS011;6591;51.446;5.404;2022-11-06T11:51:59;4.07;;;1.50;;
13048;SDS011;6591;51.446;5.404;2022-11-06T11:54:31;3.30;;;1.50;;
13048;SDS011;6591;51.446;5.404;2022-11-06T11:57:04;2.57;;;1.50;;
13048;SDS011;6591;51.446;5.404;2022-11-06T11:59:44;2.90;;;1.75;;
13048;SDS011;6591;51.446;5.404;2022-11-06T12:02:40;4.57;;;1.33;;
13048;SDS011;6591;51.446;5.404;2022-11-06T12:05:12;3.72;;;1.48;;
13048;SDS011;6591;51.446;5.404;2022-11-06T12:07:46;3.53;;;1.48;;
13048;SDS011;6591;51.446;5.404;2022-11-06T12:13:02;2.35;;;1.13;;
13048;SDS011;6591;51.446;5.404;2022-11-06T12:18:47;5.40;;;1.30;;
13048;SDS011;6591;51.446;5.404;2022-11-06T12:21:26;4.40;;;1.20;;
13048;SDS011;6591;51.446;5.404;2022-11-06T12:24:03;3.78;;;1.58;;
13048;SDS011;6591;51.446;5.404;2022-11-06T12:29:22;2.90;;;1.33;;
13048;SDS011;6591;51.446;5.404;2022-11-06T12:43:55;4.07;;;2.73;;
13048;SDS011;6591;51.446;5.404;2022-11-06T12:58:04;4.53;;;1.20;;
13048;SDS011;6591;51.446;5.404;2022-11-06T13:01:14;6.03;;;1.53;;
13048;SDS011;6591;51.446;5.404;2022-11-06T13:04:20;3.83;;;1.67;;
13048;SDS011;6591;51.446;5.404;2022-11-06T13:07:29;2.53;;;1.37;;
13048;SDS011;6591;51.446;5.404;2022-11-06T13:10:11;2.70;;;1.80;;
13048;SDS011;6591;51.446;5.404;2022-11-06T13:13:06;2.50;;;1.50;;
13048;SDS011;6591;51.446;5.404;2022-11-06T13:16:02;1.77;;;1.30;;
13048;SDS011;6591;51.446;5.404;2022-11-06T13:24:05;5.80;;;1.40;;
13048;SDS011;6591;51.446;5.404;2022-11-06T13:26:44;2.23;;;1.27;;
13048;SDS011;6591;51.446;5.404;2022-11-06T13:29:17;2.60;;;1.57;;
13048;SDS011;6591;51.446;5.404;2022-11-06T13:31:53;3.50;;;1.40;;
13048;SDS011;6591;51.446;5.404;2022-11-06T13:34:31;4.77;;;1.33;;
13048;SDS011;6591;51.446;5.404;2022-11-06T13:37:16;3.40;;;1.30;;
13048;SDS011;6591;51.446;5.404;2022-11-06T13:39:51;3.83;;;1.43;;
13048;SDS011;6591;51.446;5.404;2022-11-06T13:42:46;2.97;;;1.37;;
13048;SDS011;6591;51.446;5.404;2022-11-06T13:45:20;3.60;;;1.40;;
13048;SDS011;6591;51.446;5.404;2022-11-06T13:50:46;1.70;;;1.37;;
13048;SDS011;6591;51.446;5.404;2022-11-06T13:59:19;5.67;;;1.60;;
13048;SDS011;6591;51.446;5.404;2022-11-06T14:02:24;4.20;;;1.30;;
13048;SDS011;6591;51.446;5.404;2022-11-06T14:08:04;5.37;;;1.80;;
13048;SDS011;6591;51.446;5.404;2022-11-06T14:10:46;3.50;;;1.40;;
13048;SDS011;6591;51.446;5.404;2022-11-06T14:13:32;3.03;;;1.20;;
13048;SDS011;6591;51.446;5.404;2022-11-06T14:16:02;4.03;;;1.40;;
13048;SDS011;6591;51.446;5.404;2022-11-06T14:18:55;2.50;;;1.40;;
13048;SDS011;6591;51.446;5.404;2022-11-06T14:21:42;3.30;;;1.40;;
13048;SDS011;6591;51.446;5.404;2022-11-06T14:24:36;2.83;;;1.27;;
13048;SDS011;6591;51.446;5.404;2022-11-06T14:27:10;3.40;;;1.47;;
13048;SDS011;6591;51.446;5.404;2022-11-06T14:30:00;2.47;;;1.37;;
13048;SDS011;6591;51.446;5.404;2022-11-06T14:32:39;3.00;;;1.53;;
13048;SDS011;6591;51.446;5.404;2022-11-06T14:40:43;3.23;;;1.50;;
13048;SDS011;6591;51.446;5.404;2022-11-06T14:43:10;4.27;;;1.57;;
13048;SDS011;6591;51.446;5.404;2022-11-06T14:45:51;2.63;;;1.67;;
13048;SDS011;6591;51.446;5.404;2022-11-06T14:48:31;3.03;;;1.53;;
13048;SDS011;6591;51.446;5.404;2022-11-06T14:51:04;4.50;;;1.60;;
13048;SDS011;6591;51.446;5.404;2022-11-06T14:53:37;2.30;;;1.40;;
13048;SDS011;6591;51.446;5.404;2022-11-06T14:56:20;2.13;;;1.30;;
13048;SDS011;6591;51.446;5.404;2022-11-06T14:58:54;2.13;;;1.20;;
13048;SDS011;6591;51.446;5.404;2022-11-06T15:01:25;4.20;;;1.50;;
13048;SDS011;6591;51.446;5.404;2022-11-06T15:04:05;4.10;;;1.80;;
13048;SDS011;6591;51.446;5.404;2022-11-06T15:06:46;3.53;;;1.50;;
13048;SDS011;6591;51.446;5.404;2022-11-06T15:16:50;2.83;;;1.40;;
13048;SDS011;6591;51.446;5.404;2022-11-06T15:19:30;3.33;;;1.60;;
13048;SDS011;6591;51.446;5.404;2022-11-06T15:25:25;3.37;;;1.50;;
13048;SDS011;6591;51.446;5.404;2022-11-06T15:28:05;2.40;;;1.80;;
13048;SDS011;6591;51.446;5.404;2022-11-06T15:30:41;2.20;;;2.00;;
13048;SDS011;6591;51.446;5.404;2022-11-06T15:33:44;2.17;;;1.67;;
13048;SDS011;6591;51.446;5.404;2022-11-06T15:36:23;2.63;;;1.60;;
13048;SDS011;6591;51.446;5.404;2022-11-06T15:38:53;4.27;;;3.23;;
13048;SDS011;6591;51.446;5.404;2022-11-06T15:41:20;3.77;;;2.20;;
13048;SDS011;6591;51.446;5.404;2022-11-06T15:43:51;2.87;;;2.27;;
13048;SDS011;6591;51.446;5.404;2022-11-06T15:46:24;3.27;;;1.60;;
13048;SDS011;6591;51.446;5.404;2022-11-06T15:51:55;2.70;;;1.70;;
13048;SDS011;6591;51.446;5.404;2022-11-06T15:57:21;3.60;;;1.90;;
13048;SDS011;6591;51.446;5.404;2022-11-06T16:02:59;3.70;;;1.67;;
13048;SDS011;6591;51.446;5.404;2022-11-06T16:05:27;2.57;;;1.63;;
13048;SDS011;6591;51.446;5.404;2022-11-06T16:07:58;3.90;;;2.50;;
13048;SDS011;6591;51.446;5.404;2022-11-06T16:10:26;4.10;;;2.17;;
13048;SDS011;6591;51.446;5.404;2022-11-06T16:12:55;3.77;;;3.00;;
13048;SDS011;6591;51.446;5.404;2022-11-06T16:20:46;19.57;;;12.00;;
13048;SDS011;6591;51.446;5.404;2022-11-06T16:23:17;11.40;;;6.33;;
13048;SDS011;6591;51.446;5.404;2022-11-06T16:26:08;10.03;;;5.97;;
13048;SDS011;6591;51.446;5.404;2022-11-06T16:28:51;5.77;;;3.47;;
13048;SDS011;6591;51.446;5.404;2022-11-06T16:31:22;4.60;;;2.47;;
13048;SDS011;6591;51.446;5.404;2022-11-06T16:33:58;3.47;;;2.20;;
13048;SDS011;6591;51.446;5.404;2022-11-06T16:36:48;5.03;;;2.07;;
13048;SDS011;6591;51.446;5.404;2022-11-06T16:45:20;3.43;;;2.67;;
13048;SDS011;6591;51.446;5.404;2022-11-06T16:50:41;3.43;;;2.13;;
13048;SDS011;6591;51.446;5.404;2022-11-06T16:53:17;2.83;;;2.17;;
13048;SDS011;6591;51.446;5.404;2022-11-06T16:55:57;4.67;;;2.50;;
13048;SDS011;6591;51.446;5.404;2022-11-06T16:58:28;3.17;;;2.27;;
13048;SDS011;6591;51.446;5.404;2022-11-06T17:01:02;3.97;;;2.40;;
13048;SDS011;6591;51.446;5.404;2022-11-06T17:03:38;3.37;;;2.30;;
13048;SDS011;6591;51.446;5.404;2022-11-06T17:06:19;4.00;;;2.07;;
13048;SDS011;6591;51.446;5.404;2022-11-06T17:08:57;3.97;;;2.33;;
13048;SDS011;6591;51.446;5.404;2022-11-06T17:11:34;2.60;;;2.17;;
13048;SDS011;6591;51.446;5.404;2022-11-06T17:14:20;2.90;;;1.87;;
13048;SDS011;6591;51.446;5.404;2022-11-06T17:16:53;3.90;;;1.90;;
13048;SDS011;6591;51.446;5.404;2022-11-06T17:19:23;3.00;;;2.00;;
13048;SDS011;6591;51.446;5.404;2022-11-06T17:21:53;3.80;;;1.83;;
13048;SDS011;6591;51.446;5.404;2022-11-06T17:24:20;2.47;;;1.73;;
13048;SDS011;6591;51.446;5.404;2022-11-06T17:27:03;2.10;;;1.77;;
13048;SDS011;6591;51.446;5.404;2022-11-06T17:29:31;2.47;;;2.10;;
13048;SDS011;6591;51.446;5.404;2022-11-06T17:32:01;3.40;;;1.97;;
13048;SDS011;6591;51.446;5.404;2022-11-06T17:34:28;1.63;;;1.50;;
13048;SDS011;6591;51.446;5.404;2022-11-06T17:36:55;3.00;;;1.80;;
13048;SDS011;6591;51.446;5.404;2022-11-06T17:39:22;2.43;;;1.90;;
13048;SDS011;6591;51.446;5.404;2022-11-06T17:41:49;4.23;;;2.10;;
13048;SDS011;6591;51.446;5.404;2022-11-06T17:44:16;3.77;;;2.00;;
13048;SDS011;6591;51.446;5.404;2022-11-06T17:46:44;2.80;;;2.00;;
13048;SDS011;6591;51.446;5.404;2022-11-06T17:49:12;2.57;;;1.90;;
13048;SDS011;6591;51.446;5.404;2022-11-06T17:51:44;2.27;;;2.07;;
13048;SDS011;6591;51.446;5.404;2022-11-06T17:54:16;3.50;;;2.10;;
13048;SDS011;6591;51.446;5.404;2022-11-06T17:56:55;2.63;;;1.80;;
13048;SDS011;6591;51.446;5.404;2022-11-06T17:59:23;2.10;;;1.77;;
13048;SDS011;6591;51.446;5.404;2022-11-06T18:01:51;3.63;;;2.27;;
13048;SDS011;6591;51.446;5.404;2022-11-06T18:04:20;2.10;;;1.70;;
13048;SDS011;6591;51.446;5.404;2022-11-06T18:06:50;3.63;;;2.07;;
13048;SDS011;6591;51.446;5.404;2022-11-06T18:09:19;3.90;;;1.97;;
13048;SDS011;6591;51.446;5.404;2022-11-06T18:11:48;5.13;;;2.40;;
13048;SDS011;6591;51.446;5.404;2022-11-06T18:14:17;2.10;;;1.90;;
13048;SDS011;6591;51.446;5.404;2022-11-06T18:16:46;2.77;;;2.00;;
13048;SDS011;6591;51.446;5.404;2022-11-06T18:19:14;3.13;;;1.70;;
13048;SDS011;6591;51.446;5.404;2022-11-06T18:21:45;3.20;;;2.00;;
13048;SDS011;6591;51.446;5.404;2022-11-06T18:24:13;2.30;;;1.97;;
13048;SDS011;6591;51.446;5.404;2022-11-06T18:26:40;3.60;;;2.03;;
13048;SDS011;6591;51.446;5.404;2022-11-06T18:29:07;3.17;;;1.90;;